createdAt,value
2022-11-28T00:01:22.442Z,4.47
2022-11-28T00:03:49.706Z,3.42
2022-11-28T00:06:17.083Z,3.83
2022-11-28T00:08:44.585Z,4.07
2022-11-28T00:11:13.011Z,4.28
2022-11-28T00:13:40.846Z,4.65
2022-11-28T00:16:09.158Z,5.20
2022-11-28T00:18:36.445Z,5.30
2022-11-28T00:21:07.627Z,4.25
2022-11-28T00:23:34.926Z,3.75
2022-11-28T00:26:03.552Z,4.22
2022-11-28T00:28:30.823Z,5.10
2022-11-28T00:30:58.119Z,3.40
2022-11-28T00:33:25.435Z,3.30
2022-11-28T00:35:52.703Z,4.03
2022-11-28T00:38:19.942Z,5.18
2022-11-28T00:40:47.147Z,6.78
2022-11-28T00:43:14.516Z,3.20
2022-11-28T00:45:41.738Z,3.92
2022-11-28T00:48:08.952Z,4.85
2022-11-28T00:50:36.184Z,4.90
2022-11-28T00:53:03.382Z,3.58
2022-11-28T00:55:30.615Z,2.53
2022-11-28T00:57:57.802Z,3.72
2022-11-28T01:00:25.353Z,2.83
2022-11-28T01:02:52.646Z,2.63
2022-11-28T01:05:19.864Z,3.92
2022-11-28T01:07:47.144Z,3.50
2022-11-28T01:10:14.483Z,4.47
2022-11-28T01:12:41.706Z,3.65
2022-11-28T01:15:10.202Z,5.63
2022-11-28T01:17:37.467Z,2.97
2022-11-28T01:20:05.969Z,3.70
2022-11-28T01:22:33.258Z,3.53
2022-11-28T01:25:00.560Z,4.15
2022-11-28T01:27:27.820Z,3.58
2022-11-28T01:29:55.049Z,3.95
2022-11-28T01:32:22.249Z,5.80
2022-11-28T01:34:49.500Z,5.07
2022-11-28T01:37:16.748Z,4.75
2022-11-28T01:39:43.954Z,5.25
2022-11-28T01:42:16.845Z,5.82
2022-11-28T01:44:44.283Z,5.93
2022-11-28T01:47:11.729Z,6.72
2022-11-28T01:49:39.219Z,5.10
2022-11-28T01:52:09.055Z,3.80
2022-11-28T01:54:36.634Z,4.47
2022-11-28T01:57:06.316Z,5.50
2022-11-28T01:59:36.207Z,5.15
2022-11-28T02:02:06.043Z,4.97
2022-11-28T02:04:33.940Z,4.93
2022-11-28T02:07:01.686Z,4.13
2022-11-28T02:09:28.896Z,4.20
2022-11-28T02:11:56.150Z,5.05
2022-11-28T02:14:26.449Z,5.40
2022-11-28T02:17:10.033Z,5.18
2022-11-28T02:19:55.912Z,4.70
2022-11-28T02:22:34.945Z,5.43
2022-11-28T02:25:05.076Z,5.60
2022-11-28T02:27:35.496Z,5.63
2022-11-28T02:30:20.994Z,6.70
2022-11-28T02:32:54.455Z,4.90
2022-11-28T02:35:21.704Z,5.05
2022-11-28T02:37:58.072Z,6.13
2022-11-28T02:40:27.527Z,5.80
2022-11-28T02:42:54.750Z,6.18
2022-11-28T02:45:51.220Z,6.28
2022-11-28T02:48:27.855Z,5.07
2022-11-28T02:50:59.408Z,6.82
2022-11-28T02:53:27.897Z,4.63
2022-11-28T02:55:55.220Z,4.28
2022-11-28T02:58:22.454Z,5.72
2022-11-28T03:00:51.244Z,6.13
2022-11-28T03:03:24.386Z,7.00
2022-11-28T03:06:27.328Z,5.45
2022-11-28T03:09:02.384Z,6.88
2022-11-28T03:11:47.760Z,5.53
2022-11-28T03:14:14.998Z,5.40
2022-11-28T03:17:05.329Z,4.32
2022-11-28T03:19:35.549Z,6.35
2022-11-28T03:22:05.890Z,5.78
2022-11-28T03:24:42.432Z,4.28
2022-11-28T03:27:15.106Z,5.65
2022-11-28T03:29:44.891Z,3.22
2022-11-28T03:32:18.457Z,4.82
2022-11-28T03:34:48.067Z,5.25
2022-11-28T03:37:18.898Z,4.32
2022-11-28T03:39:49.130Z,4.63
2022-11-28T03:42:24.700Z,7.38
2022-11-28T03:45:01.129Z,9.57
2022-11-28T03:47:31.728Z,6.10
2022-11-28T03:50:03.072Z,5.15
2022-11-28T03:52:33.724Z,3.88
2022-11-28T03:55:12.565Z,7.38
2022-11-28T03:57:44.133Z,4.90
2022-11-28T04:00:13.148Z,3.92
2022-11-28T04:02:45.765Z,6.13
2022-11-28T04:05:15.989Z,6.25
2022-11-28T04:07:46.171Z,3.63
2022-11-28T04:10:13.720Z,4.18
2022-11-28T04:12:47.652Z,6.15
2022-11-28T04:15:38.010Z,4.10
2022-11-28T04:18:14.382Z,4.05
2022-11-28T04:20:44.773Z,6.20
2022-11-28T04:23:13.665Z,4.38
2022-11-28T04:25:43.319Z,4.65
2022-11-28T04:28:14.052Z,5.60
2022-11-28T04:30:42.994Z,4.38
2022-11-28T04:33:12.263Z,5.57
2022-11-28T04:35:42.736Z,4.00
2022-11-28T04:38:11.145Z,3.83
2022-11-28T04:40:42.081Z,5.03
2022-11-28T04:43:11.580Z,3.65
2022-11-28T04:45:41.462Z,3.85
2022-11-28T04:48:08.744Z,4.20
2022-11-28T04:50:45.292Z,3.03
2022-11-28T04:53:18.688Z,3.50
2022-11-28T04:55:52.486Z,4.38
2022-11-28T04:58:29.683Z,3.53
2022-11-28T05:00:57.714Z,3.97
2022-11-28T05:03:28.180Z,4.47
2022-11-28T05:05:55.510Z,3.60
2022-11-28T05:08:22.800Z,4.05
2022-11-28T05:10:50.171Z,3.45
2022-11-28T05:13:17.958Z,4.85
2022-11-28T05:15:45.186Z,4.10
2022-11-28T05:18:12.540Z,3.72
2022-11-28T05:20:40.270Z,4.80
2022-11-28T05:23:07.657Z,4.40
2022-11-28T05:25:34.974Z,4.60
2022-11-28T05:28:02.212Z,4.78
2022-11-28T05:30:29.466Z,6.63
2022-11-28T05:32:56.788Z,5.88
2022-11-28T05:35:23.994Z,4.32
2022-11-28T05:37:51.206Z,7.20
2022-11-28T05:40:18.524Z,3.35
2022-11-28T05:42:45.759Z,5.40
2022-11-28T05:45:12.991Z,4.82
2022-11-28T05:47:40.189Z,4.25
2022-11-28T05:50:08.208Z,3.83
2022-11-28T05:52:35.536Z,4.20
2022-11-28T05:55:02.762Z,6.05
2022-11-28T05:57:32.087Z,7.43
2022-11-28T05:59:59.427Z,5.50
2022-11-28T06:02:26.858Z,6.90
2022-11-28T06:04:54.164Z,5.88
2022-11-28T06:07:21.545Z,4.25
2022-11-28T06:09:48.862Z,6.32
2022-11-28T06:12:16.122Z,7.05
2022-11-28T06:14:43.328Z,4.53
2022-11-28T06:17:10.639Z,6.10
2022-11-28T06:19:37.991Z,5.93
2022-11-28T06:22:05.389Z,4.45
2022-11-28T06:24:32.696Z,7.10
2022-11-28T06:26:59.943Z,5.03
2022-11-28T06:29:27.228Z,7.65
2022-11-28T06:31:56.191Z,6.72
2022-11-28T06:34:23.972Z,4.65
2022-11-28T06:36:51.270Z,5.85
2022-11-28T06:39:18.950Z,5.35
2022-11-28T06:41:46.318Z,6.50
2022-11-28T06:44:14.716Z,5.95
2022-11-28T06:46:42.108Z,6.38
2022-11-28T06:49:10.915Z,5.47
2022-11-28T06:51:38.168Z,6.25
2022-11-28T06:54:06.227Z,4.93
2022-11-28T06:56:33.546Z,5.85
2022-11-28T06:59:01.597Z,5.72
2022-11-28T07:01:30.737Z,4.53
2022-11-28T07:03:58.020Z,4.68
2022-11-28T07:06:26.685Z,5.05
2022-11-28T07:08:54.178Z,4.63
2022-11-28T07:11:22.773Z,5.95
2022-11-28T07:13:50.559Z,4.50
2022-11-28T07:16:22.028Z,5.85
2022-11-28T07:18:49.550Z,5.68
2022-11-28T07:21:17.011Z,4.53
2022-11-28T07:23:44.739Z,5.05
2022-11-28T07:26:13.320Z,4.25
2022-11-28T07:28:40.979Z,5.55
2022-11-28T07:31:08.241Z,4.75
2022-11-28T07:33:36.004Z,4.72
2022-11-28T07:36:04.255Z,5.07
2022-11-28T07:38:31.745Z,6.85
2022-11-28T07:41:08.816Z,6.93
2022-11-28T07:43:36.068Z,4.63
2022-11-28T07:46:07.197Z,6.05
2022-11-28T07:48:35.019Z,5.28
2022-11-28T07:51:05.988Z,4.18
2022-11-28T07:53:33.284Z,6.13
2022-11-28T07:56:05.043Z,5.60
2022-11-28T07:58:32.811Z,7.78
2022-11-28T08:01:00.036Z,4.85
2022-11-28T08:03:27.400Z,5.13
2022-11-28T08:05:56.273Z,4.57
2022-11-28T08:08:26.337Z,3.83
2022-11-28T08:10:57.858Z,4.93
2022-11-28T08:13:25.212Z,4.07
2022-11-28T08:15:52.442Z,5.88
2022-11-28T08:18:19.715Z,5.45
2022-11-28T08:20:46.994Z,6.35
2022-11-28T08:23:14.476Z,6.53
2022-11-28T08:25:41.686Z,4.40
2022-11-28T08:28:08.938Z,5.47
2022-11-28T08:30:36.219Z,8.50
2022-11-28T08:33:04.373Z,7.18
2022-11-28T08:35:31.790Z,5.55
2022-11-28T08:38:01.745Z,6.55
2022-11-28T08:40:29.596Z,6.03
2022-11-28T08:42:56.821Z,6.47
2022-11-28T08:45:24.049Z,6.28
2022-11-28T08:47:51.298Z,7.05
2022-11-28T08:50:18.539Z,5.75
2022-11-28T08:52:46.231Z,6.30
2022-11-28T08:55:13.483Z,6.35
2022-11-28T08:57:40.724Z,7.88
2022-11-28T09:00:08.807Z,5.20
2022-11-28T09:02:36.075Z,19.08
2022-11-28T09:05:03.341Z,6.43
2022-11-28T09:07:30.673Z,5.88
2022-11-28T09:09:58.019Z,5.78
2022-11-28T09:12:25.558Z,6.82
2022-11-28T09:14:52.761Z,4.75
2022-11-28T09:17:20.104Z,4.85
2022-11-28T09:19:47.451Z,5.05
2022-11-28T09:22:14.673Z,3.70
2022-11-28T09:24:42.034Z,5.13
2022-11-28T09:27:09.292Z,5.22
2022-11-28T09:29:36.495Z,4.05
2022-11-28T09:32:03.743Z,5.63
2022-11-28T09:34:31.032Z,5.78
2022-11-28T09:37:02.155Z,6.47
2022-11-28T09:39:43.992Z,5.63
2022-11-28T09:42:28.133Z,6.80
2022-11-28T09:45:01.193Z,5.75
2022-11-28T09:47:32.890Z,7.72
2022-11-28T09:50:00.103Z,5.72
2022-11-28T09:52:39.332Z,5.78
2022-11-28T09:55:26.859Z,4.72
2022-11-28T09:57:56.095Z,5.88
2022-11-28T10:00:25.278Z,7.38
2022-11-28T10:03:04.694Z,4.70
2022-11-28T10:05:36.855Z,5.90
2022-11-28T10:08:10.460Z,6.55
2022-11-28T10:10:56.175Z,5.07
2022-11-28T10:15:56.816Z,6.63
2022-11-28T10:18:26.928Z,6.20
2022-11-28T10:20:56.117Z,5.68
2022-11-28T10:23:26.127Z,9.45
2022-11-28T10:25:56.546Z,8.18
2022-11-28T10:28:28.504Z,6.70
2022-11-28T10:31:03.150Z,6.38
2022-11-28T10:33:50.645Z,9.70
2022-11-28T10:36:40.548Z,8.63
2022-11-28T10:39:12.404Z,8.38
2022-11-28T10:42:11.937Z,4.85
2022-11-28T10:44:51.665Z,3.85
2022-11-28T10:47:37.501Z,5.63
2022-11-28T10:50:14.153Z,5.43
2022-11-28T10:52:44.329Z,4.88
2022-11-28T10:55:20.668Z,9.38
2022-11-28T10:58:00.122Z,5.18
2022-11-28T11:00:27.375Z,4.88
2022-11-28T11:02:55.811Z,5.78
2022-11-28T11:05:33.244Z,7.95
2022-11-28T11:08:04.886Z,6.05
2022-11-28T11:10:32.239Z,7.40
2022-11-28T11:12:59.774Z,7.90
2022-11-28T11:15:33.617Z,7.55
2022-11-28T11:18:05.696Z,5.72
2022-11-28T11:20:35.216Z,6.53
2022-11-28T11:23:11.884Z,5.45
2022-11-28T11:25:46.045Z,4.50
2022-11-28T11:28:26.849Z,6.20
2022-11-28T11:31:05.107Z,8.48
2022-11-28T11:33:36.388Z,7.38
2022-11-28T11:36:04.562Z,7.20
2022-11-28T11:38:37.821Z,5.45
2022-11-28T11:41:23.901Z,6.70
2022-11-28T11:46:18.346Z,7.28
2022-11-28T11:48:46.842Z,6.88
2022-11-28T11:51:26.289Z,5.78
2022-11-28T11:54:07.056Z,10.93
2022-11-28T11:56:38.553Z,5.93
2022-11-28T11:59:14.679Z,6.85
2022-11-28T12:01:43.060Z,5.60
2022-11-28T12:04:43.323Z,8.63
2022-11-28T12:07:06.490Z,8.70
2022-11-28T12:09:47.758Z,7.22
2022-11-28T12:12:18.684Z,6.65
2022-11-28T12:14:48.005Z,6.82
2022-11-28T12:17:48.432Z,8.27
2022-11-28T12:20:31.850Z,7.07
2022-11-28T12:22:59.035Z,7.53
2022-11-28T12:25:26.285Z,5.90
2022-11-28T12:27:59.383Z,6.63
2022-11-28T12:30:29.752Z,7.30
2022-11-28T12:33:05.911Z,7.10
2022-11-28T12:35:35.978Z,5.30
2022-11-28T12:38:18.705Z,7.97
2022-11-28T12:40:48.935Z,6.78
2022-11-28T12:43:19.040Z,8.73
2022-11-28T12:45:52.070Z,8.30
2022-11-28T12:48:25.362Z,7.07
2022-11-28T12:51:08.498Z,7.72
2022-11-28T12:53:48.216Z,6.22
2022-11-28T12:56:34.143Z,8.85
2022-11-28T12:59:08.380Z,6.72
2022-11-28T13:01:53.752Z,5.25
2022-11-28T13:04:20.986Z,7.63
2022-11-28T13:07:01.898Z,7.05
2022-11-28T13:09:37.895Z,8.25
2022-11-28T13:12:17.515Z,5.57
2022-11-28T13:15:04.969Z,7.50
2022-11-28T13:17:36.017Z,5.38
2022-11-28T13:20:22.130Z,7.40
2022-11-28T13:22:49.717Z,7.65
2022-11-28T13:25:32.102Z,12.77
2022-11-28T13:28:14.197Z,8.63
2022-11-28T13:30:51.740Z,9.40
2022-11-28T13:33:25.057Z,8.07
2022-11-28T13:35:53.135Z,10.65
2022-11-28T13:38:54.265Z,7.85
2022-11-28T13:44:51.460Z,6.22
2022-11-28T13:47:27.759Z,6.85
2022-11-28T13:50:13.648Z,7.38
2022-11-28T13:52:44.059Z,12.10
2022-11-28T13:55:31.561Z,11.43
2022-11-28T13:57:58.816Z,12.98
2022-11-28T14:00:27.945Z,13.98
2022-11-28T14:02:58.334Z,9.25
2022-11-28T14:05:36.530Z,7.97
2022-11-28T14:08:04.267Z,9.65
2022-11-28T14:10:34.439Z,13.20
2022-11-28T14:13:14.156Z,9.10
2022-11-28T14:15:41.415Z,7.07
2022-11-28T14:18:55.573Z,7.25
2022-11-28T14:21:24.890Z,7.55
2022-11-28T14:24:01.955Z,6.95
2022-11-28T14:26:32.209Z,7.57
2022-11-28T14:28:59.773Z,9.75
2022-11-28T14:31:29.076Z,10.50
2022-11-28T14:34:06.317Z,10.27
2022-11-28T14:36:39.329Z,8.65
2022-11-28T14:39:12.259Z,8.50
2022-11-28T14:41:58.404Z,7.30
2022-11-28T14:44:46.329Z,10.93
2022-11-28T14:47:28.907Z,11.38
2022-11-28T14:50:08.212Z,12.45
2022-11-28T14:52:39.836Z,13.05
2022-11-28T14:55:13.437Z,6.82
2022-11-28T14:57:40.681Z,8.05
2022-11-28T15:00:15.311Z,10.15
2022-11-28T15:02:53.184Z,8.98
2022-11-28T15:05:24.836Z,26.08
2022-11-28T15:08:00.459Z,24.35
2022-11-28T15:10:30.697Z,28.83
2022-11-28T15:13:24.736Z,27.63
2022-11-28T15:15:52.593Z,19.63
2022-11-28T15:18:20.892Z,14.38
2022-11-28T15:21:02.927Z,12.38
2022-11-28T15:23:31.396Z,10.65
2022-11-28T15:26:00.590Z,16.08
2022-11-28T15:28:29.049Z,12.60
2022-11-28T15:30:57.580Z,21.63
2022-11-28T15:33:26.052Z,19.92
2022-11-28T15:35:56.407Z,17.38
2022-11-28T15:38:23.783Z,11.55
2022-11-28T15:40:52.332Z,12.48
2022-11-28T15:43:19.883Z,14.80
2022-11-28T15:45:51.226Z,12.52
2022-11-28T15:48:27.341Z,12.23
2022-11-28T15:50:54.628Z,11.10
2022-11-28T15:53:22.887Z,8.98
2022-11-28T15:56:08.295Z,11.40
2022-11-28T15:58:35.593Z,8.52
2022-11-28T16:01:02.861Z,8.75
2022-11-28T16:03:31.373Z,10.38
2022-11-28T16:05:59.468Z,12.63
2022-11-28T16:08:31.402Z,14.27
2022-11-28T16:11:00.544Z,14.40
2022-11-28T16:13:28.336Z,15.55
2022-11-28T16:15:57.712Z,12.73
2022-11-28T16:18:26.755Z,11.43
2022-11-28T16:20:54.466Z,12.43
2022-11-28T16:23:33.634Z,11.43
2022-11-28T16:26:00.919Z,12.48
2022-11-28T16:28:32.904Z,13.50
2022-11-28T16:31:00.394Z,9.73
2022-11-28T16:33:46.018Z,14.35
2022-11-28T16:36:13.383Z,13.82
2022-11-28T16:38:41.246Z,14.75
2022-11-28T16:41:15.165Z,14.90
2022-11-28T16:43:42.567Z,12.75
2022-11-28T16:46:18.897Z,11.13
2022-11-28T16:48:57.087Z,15.88
2022-11-28T16:51:27.150Z,12.60
2022-11-28T16:53:55.673Z,13.27
2022-11-28T16:56:25.730Z,12.13
2022-11-28T16:58:55.879Z,12.80
2022-11-28T17:01:23.313Z,13.00
2022-11-28T17:03:52.024Z,14.50
2022-11-28T17:06:19.313Z,14.68
2022-11-28T17:08:46.621Z,11.60
2022-11-28T17:11:14.423Z,13.40
2022-11-28T17:13:41.897Z,13.48
2022-11-28T17:16:19.176Z,12.93
2022-11-28T17:18:46.805Z,10.52
2022-11-28T17:21:15.051Z,11.02
2022-11-28T17:23:42.923Z,11.57
2022-11-28T17:26:10.491Z,15.43
2022-11-28T17:28:38.091Z,12.23
2022-11-28T17:31:05.452Z,12.30
2022-11-28T17:33:32.791Z,12.73
2022-11-28T17:36:00.967Z,13.60
2022-11-28T17:38:29.977Z,13.52
2022-11-28T17:40:57.250Z,12.70
2022-11-28T17:43:24.480Z,11.35
2022-11-28T17:45:51.845Z,15.25
2022-11-28T17:48:19.599Z,10.10
2022-11-28T17:50:49.182Z,12.63
2022-11-28T17:53:17.716Z,11.82
2022-11-28T17:55:46.056Z,19.70
2022-11-28T17:58:26.835Z,17.17
2022-11-28T18:00:59.957Z,24.42
2022-11-28T18:03:28.463Z,17.90
2022-11-28T18:05:55.745Z,24.38
2022-11-28T18:08:23.041Z,16.77
2022-11-28T18:10:50.431Z,18.55
2022-11-28T18:13:17.756Z,16.65
2022-11-28T18:15:47.071Z,15.95
2022-11-28T18:18:14.527Z,18.58
2022-11-28T18:20:41.873Z,16.58
2022-11-28T18:23:11.191Z,15.18
2022-11-28T18:25:41.548Z,14.18
2022-11-28T18:28:08.875Z,12.73
2022-11-28T18:30:36.526Z,14.60
2022-11-28T18:33:03.824Z,14.70
2022-11-28T18:35:31.069Z,14.15
2022-11-28T18:37:58.347Z,15.65
2022-11-28T18:40:25.653Z,15.23
2022-11-28T18:42:52.968Z,12.02
2022-11-28T18:45:23.264Z,10.88
2022-11-28T18:47:50.552Z,11.75
2022-11-28T18:50:17.900Z,14.00
2022-11-28T18:52:45.117Z,16.80
2022-11-28T18:55:12.347Z,17.35
2022-11-28T18:57:41.429Z,13.15
2022-11-28T19:00:09.083Z,12.00
2022-11-28T19:02:36.403Z,11.40
2022-11-28T19:05:03.894Z,11.35
2022-11-28T19:07:31.307Z,10.57
2022-11-28T19:09:58.630Z,15.38
2022-11-28T19:12:25.894Z,12.23
2022-11-28T19:14:57.303Z,12.25
2022-11-28T19:17:27.715Z,13.43
2022-11-28T19:19:54.989Z,10.35
2022-11-28T19:22:22.927Z,11.27
2022-11-28T19:24:50.422Z,14.88
2022-11-28T19:27:17.740Z,15.18
2022-11-28T19:29:45.105Z,13.48
2022-11-28T19:32:12.743Z,13.45
2022-11-28T19:34:40.078Z,12.15
2022-11-28T19:37:07.309Z,14.45
2022-11-28T19:39:34.621Z,15.57
2022-11-28T19:42:01.933Z,14.02
2022-11-28T19:44:29.847Z,17.13
2022-11-28T19:46:57.160Z,14.23
2022-11-28T19:49:25.096Z,14.40
2022-11-28T19:51:54.376Z,15.38
2022-11-28T19:54:21.891Z,14.52
2022-11-28T19:56:49.648Z,16.60
2022-11-28T19:59:17.254Z,13.57
2022-11-28T20:01:44.677Z,16.20
2022-11-28T20:04:12.215Z,13.15
2022-11-28T20:06:39.476Z,13.00
2022-11-28T20:09:08.981Z,14.00
2022-11-28T20:11:36.980Z,15.55
2022-11-28T20:14:08.765Z,13.95
2022-11-28T20:16:36.973Z,11.98
2022-11-28T20:19:04.777Z,14.30
2022-11-28T20:21:32.706Z,13.07
2022-11-28T20:24:04.649Z,14.40
2022-11-28T20:26:32.995Z,12.13
2022-11-28T20:29:00.385Z,13.73
2022-11-28T20:31:30.882Z,14.27
2022-11-28T20:33:58.647Z,17.25
2022-11-28T20:36:26.980Z,14.55
2022-11-28T20:38:55.040Z,12.30
2022-11-28T20:41:23.350Z,14.35
2022-11-28T20:43:50.930Z,14.02
2022-11-28T20:46:19.171Z,14.32
2022-11-28T20:48:46.661Z,14.15
2022-11-28T20:51:18.349Z,14.40
2022-11-28T20:53:45.669Z,14.10
2022-11-28T20:56:14.165Z,14.57
2022-11-28T20:58:42.101Z,12.13
2022-11-28T21:01:09.468Z,14.35
2022-11-28T21:03:37.177Z,12.23
2022-11-28T21:06:04.501Z,12.25
2022-11-28T21:08:33.793Z,12.30
2022-11-28T21:11:04.792Z,12.48
2022-11-28T21:13:32.324Z,12.73
2022-11-28T21:16:04.814Z,13.55
2022-11-28T21:18:32.128Z,12.93
2022-11-28T21:20:59.489Z,13.70
2022-11-28T21:23:26.732Z,12.88
2022-11-28T21:25:54.072Z,16.58
2022-11-28T21:28:21.355Z,17.27
2022-11-28T21:30:49.055Z,16.33
2022-11-28T21:33:16.293Z,15.25
2022-11-28T21:35:43.529Z,15.40
2022-11-28T21:38:11.196Z,15.60
2022-11-28T21:40:38.431Z,16.63
2022-11-28T21:43:05.648Z,17.42
2022-11-28T21:45:35.197Z,16.23
2022-11-28T21:48:02.554Z,19.58
2022-11-28T21:50:29.776Z,14.15
2022-11-28T21:52:57.019Z,15.88
2022-11-28T21:55:24.243Z,12.15
2022-11-28T21:57:51.836Z,13.93
2022-11-28T22:00:38.625Z,12.70
2022-11-28T22:03:12.530Z,14.20
2022-11-28T22:05:41.288Z,13.02
2022-11-28T22:08:08.521Z,11.55
2022-11-28T22:10:37.708Z,14.00
2022-11-28T22:13:04.905Z,13.10
2022-11-28T22:15:32.197Z,14.38
2022-11-28T22:17:59.414Z,10.32
2022-11-28T22:20:26.639Z,11.52
2022-11-28T22:22:53.875Z,10.90
2022-11-28T22:25:21.084Z,11.07
2022-11-28T22:27:48.338Z,12.60
2022-11-28T22:30:15.768Z,10.93
2022-11-28T22:32:43.053Z,10.20
2022-11-28T22:35:10.393Z,10.73
2022-11-28T22:37:37.624Z,13.07
2022-11-28T22:40:05.081Z,14.00
2022-11-28T22:42:32.355Z,11.40
2022-11-28T22:44:59.624Z,13.75
2022-11-28T22:47:26.890Z,15.90
2022-11-28T22:49:54.121Z,14.82
2022-11-28T22:52:21.431Z,15.63
2022-11-28T22:54:50.464Z,17.20
2022-11-28T22:57:17.836Z,15.98
2022-11-28T22:59:45.101Z,12.52
2022-11-28T23:02:12.397Z,9.48
2022-11-28T23:04:39.752Z,9.75
2022-11-28T23:07:07.060Z,10.05
2022-11-28T23:09:34.265Z,9.13
2022-11-28T23:12:01.767Z,13.57
2022-11-28T23:14:29.013Z,10.98
2022-11-28T23:16:56.261Z,11.13
2022-11-28T23:19:23.626Z,10.63
2022-11-28T23:21:51.288Z,10.85
2022-11-28T23:24:20.381Z,13.65
2022-11-28T23:26:48.289Z,11.32
2022-11-28T23:29:15.721Z,12.98
2022-11-28T23:31:43.580Z,11.95
2022-11-28T23:34:11.296Z,14.32
2022-11-28T23:36:42.394Z,10.88
2022-11-28T23:39:14.320Z,12.38
2022-11-28T23:41:41.906Z,12.30
2022-11-28T23:44:10.259Z,12.48
2022-11-28T23:46:37.639Z,11.52
2022-11-28T23:49:05.806Z,11.38
2022-11-28T23:51:33.176Z,10.35
2022-11-28T23:54:00.778Z,12.88
2022-11-28T23:56:29.859Z,13.57
2022-11-28T23:58:57.972Z,13.50
